This is the latest recevied weather packets stored in our database for station/object KI5MKI. If no packets are shown the sender has not sent any weather packets the latest 10 day(s).
| Time | Temp. | Humidity | Pressure | Rain* | Wind** | Luminosity | Snow |
|---|---|---|---|---|---|---|---|
| 1777687750 | 14.44° C | 82% | 1018.4 hPa | 0 mm | - | 0 W/m² | - |
| 1777674119 | 17.22° C | 64% | 1015.4 hPa | 0 mm | - | 120 W/m² | - |
| 1777673816 | 17.22° C | 65% | 1015.4 hPa | 0 mm | - | 123 W/m² | - |
| 1777673513 | 17.78° C | 64% | 1015.5 hPa | 0 mm | - | 109 W/m² | - |
| 1777673211 | 17.78° C | 64% | 1015.6 hPa | 0 mm | - | 135 W/m² | - |
| 1777672908 | 17.78° C | 63% | 1015.6 hPa | 0 mm | - | 120 W/m² | - |
| 1777671995 | 17.22° C | 65% | 1014.9 hPa | 0 mm | - | 220 W/m² | - |
| 1777671388 | 17.22° C | 64% | 1014.9 hPa | 0 mm | - | 166 W/m² | - |
| 1777671083 | 17.22° C | 65% | 1015.1 hPa | 0 mm | - | 196 W/m² | - |
| 1777670477 | 16.67° C | 66% | 1015.6 hPa | 0 mm | - | 162 W/m² | - |
| 1777670174 | 16.67° C | 66% | 1015.9 hPa | 0 mm | - | 152 W/m² | - |
| 1777669872 | 17.22° C | 66% | 1016 hPa | 0 mm | - | 139 W/m² | - |
| 1777669568 | 16.67° C | 65% | 1016.2 hPa | 0 mm | - | 132 W/m² | - |
| 1777669265 | 16.67° C | 64% | 1016.3 hPa | 0 mm | - | 184 W/m² | - |
| 1777668961 | 16.67° C | 67% | 1016.1 hPa | 0 mm | - | 217 W/m² | - |
| 1777668659 | 16.67° C | 65% | 1016 hPa | 0 mm | - | 216 W/m² | - |
| 1777668355 | 16.11° C | 66% | 1016.3 hPa | 0 mm | - | 152 W/m² | - |
| 1777667748 | 16.11° C | 64% | 1016.6 hPa | 0 mm | - | 100 W/m² | - |
| 1777667446 | 16.11° C | 63% | 1016.5 hPa | 0 mm | - | 109 W/m² | - |
| 1777667143 | 16.67° C | 64% | 1016.5 hPa | 0 mm | - | 133 W/m² | - |
| 1777666839 | 16.67° C | 64% | 1016.3 hPa | 0 mm | - | 144 W/m² | - |
| 1777665930 | 16.67° C | 65% | 1016.2 hPa | 0 mm | - | 179 W/m² | - |
| 1777665627 | 16.67° C | 62% | 1016 hPa | 0 mm | - | 231 W/m² | - |
| 1777665324 | 16.67° C | 61% | 1016 hPa | 0 mm | - | 246 W/m² | - |
| 1777665020 | 16.67° C | 62% | 1015.8 hPa | 0 mm | - | 225 W/m² | - |
* Rain latest hour (hover to see other rain measurements)
** Current wind speed in m/s (hover to see current wind gust speed)